createdAt,value
2022-12-27T00:00:10.563Z,12.50
2022-12-27T00:02:58.760Z,13.60
2022-12-27T00:05:26.990Z,14.10
2022-12-27T00:07:55.896Z,12.70
2022-12-27T00:10:24.071Z,12.40
2022-12-27T00:12:53.395Z,13.60
2022-12-27T00:15:21.544Z,13.60
2022-12-27T00:17:49.704Z,13.40
2022-12-27T00:20:17.892Z,12.90
2022-12-27T00:22:45.965Z,13.10
2022-12-27T00:25:14.088Z,10.80
2022-12-27T00:27:42.197Z,12.30
2022-12-27T00:30:11.051Z,12.10
2022-12-27T00:32:39.194Z,11.40
2022-12-27T00:35:07.600Z,11.50
2022-12-27T00:37:35.768Z,10.30
2022-12-27T00:40:04.192Z,11.60
2022-12-27T00:42:32.319Z,11.70
2022-12-27T00:45:00.420Z,10.40
2022-12-27T00:47:28.474Z,10.40
2022-12-27T00:49:56.603Z,9.60
2022-12-27T00:52:24.738Z,9.40
2022-12-27T00:54:52.823Z,10.30
2022-12-27T00:57:20.875Z,10.30
2022-12-27T00:59:49.004Z,11.90
2022-12-27T01:02:17.131Z,11.70
2022-12-27T01:04:45.835Z,11.40
2022-12-27T01:07:14.013Z,13.60
2022-12-27T01:09:42.009Z,12.50
2022-12-27T01:12:10.097Z,11.00
2022-12-27T01:14:38.220Z,11.80
2022-12-27T01:17:06.603Z,11.10
2022-12-27T01:19:39.167Z,11.10
2022-12-27T01:22:07.346Z,11.70
2022-12-27T01:24:35.414Z,12.60
2022-12-27T01:27:03.550Z,11.90
2022-12-27T01:29:31.665Z,12.50
2022-12-27T01:31:59.821Z,11.30
2022-12-27T01:34:27.901Z,10.90
2022-12-27T01:36:56.332Z,11.40
2022-12-27T01:39:24.439Z,10.40
2022-12-27T01:42:11.000Z,11.40
2022-12-27T01:44:43.648Z,10.30
2022-12-27T01:47:14.666Z,11.40
2022-12-27T01:49:52.560Z,11.80
2022-12-27T01:52:21.770Z,12.00
2022-12-27T01:54:49.915Z,14.00
2022-12-27T01:57:18.207Z,10.70
2022-12-27T01:59:46.811Z,12.20
2022-12-27T02:02:15.141Z,11.40
2022-12-27T02:04:43.951Z,10.60
2022-12-27T02:07:12.180Z,9.80
2022-12-27T02:09:50.256Z,11.10
2022-12-27T02:12:20.260Z,10.10
2022-12-27T02:14:50.044Z,12.80
2022-12-27T02:17:26.804Z,10.90
2022-12-27T02:20:15.185Z,13.00
2022-12-27T02:23:18.541Z,14.50
2022-12-27T02:26:13.794Z,14.50
2022-12-27T02:28:56.770Z,14.60
2022-12-27T02:31:39.503Z,14.00
2022-12-27T02:34:24.861Z,12.60
2022-12-27T02:36:58.150Z,12.70
2022-12-27T02:39:27.636Z,11.10
2022-12-27T02:42:15.432Z,12.00
2022-12-27T02:45:18.750Z,11.70
2022-12-27T02:48:07.929Z,10.50
2022-12-27T02:51:17.741Z,12.00
2022-12-27T02:54:04.311Z,11.90
2022-12-27T02:57:08.935Z,13.80
2022-12-27T03:00:20.421Z,11.40
2022-12-27T03:03:07.212Z,11.60
2022-12-27T03:06:13.587Z,11.20
2022-12-27T03:09:04.827Z,13.20
2022-12-27T03:12:05.982Z,12.80
2022-12-27T03:17:30.846Z,13.20
2022-12-27T03:20:23.921Z,13.00
2022-12-27T03:23:12.663Z,12.70
2022-12-27T03:25:43.286Z,10.00
2022-12-27T03:28:36.727Z,10.80
2022-12-27T03:31:31.836Z,10.70
2022-12-27T03:34:26.301Z,9.50
2022-12-27T03:37:16.246Z,9.00
2022-12-27T03:39:52.651Z,10.30
2022-12-27T03:42:45.025Z,10.90
2022-12-27T03:45:13.162Z,11.20
2022-12-27T03:47:59.533Z,10.80
2022-12-27T03:50:35.995Z,10.60
2022-12-27T03:53:11.242Z,9.40
2022-12-27T03:55:39.497Z,9.60
2022-12-27T03:58:07.587Z,9.30
2022-12-27T04:00:35.772Z,9.70
2022-12-27T04:03:04.501Z,9.30
2022-12-27T04:05:32.714Z,8.40
2022-12-27T04:08:19.560Z,10.00
2022-12-27T04:11:06.155Z,9.10
2022-12-27T04:13:52.659Z,10.90
2022-12-27T04:16:39.430Z,11.20
2022-12-27T04:19:26.066Z,11.60
2022-12-27T04:22:12.714Z,11.30
2022-12-27T04:24:59.374Z,12.80
2022-12-27T04:27:46.144Z,12.60
2022-12-27T04:30:32.958Z,11.50
2022-12-27T04:33:19.628Z,8.80
2022-12-27T04:35:47.667Z,8.90
2022-12-27T04:38:15.717Z,9.00
2022-12-27T04:41:02.336Z,8.00
2022-12-27T04:43:48.770Z,9.80
2022-12-27T04:46:44.198Z,9.60
2022-12-27T04:49:36.140Z,10.30
2022-12-27T04:52:33.382Z,9.50
2022-12-27T04:55:23.575Z,8.50
2022-12-27T04:57:53.307Z,10.30
2022-12-27T05:00:42.699Z,8.00
2022-12-27T05:03:15.284Z,8.20
2022-12-27T05:05:44.637Z,8.20
2022-12-27T05:08:33.051Z,8.20
2022-12-27T05:11:19.661Z,9.00
2022-12-27T05:14:13.920Z,9.00
2022-12-27T05:16:43.916Z,10.40
2022-12-27T05:19:14.612Z,10.50
2022-12-27T05:22:05.140Z,9.90
2022-12-27T05:24:52.023Z,10.10
2022-12-27T05:27:20.219Z,10.20
2022-12-27T05:29:48.369Z,11.30
2022-12-27T05:32:16.374Z,10.70
2022-12-27T05:34:44.550Z,10.50
2022-12-27T05:37:12.681Z,11.00
2022-12-27T05:39:40.758Z,11.20
2022-12-27T05:42:08.797Z,9.30
2022-12-27T05:44:36.865Z,10.90
2022-12-27T05:47:05.213Z,8.30
2022-12-27T05:49:33.300Z,7.50
2022-12-27T05:54:46.718Z,7.80
2022-12-27T05:57:14.786Z,7.20
2022-12-27T05:59:42.899Z,6.60
2022-12-27T06:02:11.091Z,6.10
2022-12-27T06:04:39.351Z,6.10
2022-12-27T06:07:07.399Z,6.30
2022-12-27T06:09:35.513Z,6.20
2022-12-27T06:12:04.166Z,6.60
2022-12-27T06:14:32.530Z,6.70
2022-12-27T06:17:00.676Z,7.30
2022-12-27T06:19:28.709Z,7.30
2022-12-27T06:21:56.749Z,8.40
2022-12-27T06:24:24.993Z,7.90
2022-12-27T06:26:53.057Z,9.80
2022-12-27T06:29:21.482Z,7.00
2022-12-27T06:31:49.764Z,6.60
2022-12-27T06:34:17.834Z,5.90
2022-12-27T06:36:51.100Z,5.50
2022-12-27T06:39:19.916Z,7.00
2022-12-27T06:41:48.126Z,7.00
2022-12-27T06:44:16.445Z,6.30
2022-12-27T06:46:44.492Z,5.60
2022-12-27T06:49:12.611Z,6.30
2022-12-27T06:51:40.676Z,5.10
2022-12-27T06:54:08.715Z,5.70
2022-12-27T06:56:36.904Z,7.40
2022-12-27T06:59:05.151Z,6.20
2022-12-27T07:01:33.345Z,6.10
2022-12-27T07:04:01.641Z,4.60
2022-12-27T07:06:32.218Z,4.20
2022-12-27T07:09:01.229Z,4.50
2022-12-27T07:11:33.257Z,5.50
2022-12-27T07:14:01.560Z,5.50
2022-12-27T07:16:30.709Z,4.80
2022-12-27T07:19:00.104Z,4.60
2022-12-27T07:21:29.316Z,5.40
2022-12-27T07:23:57.906Z,5.50
2022-12-27T07:26:30.411Z,5.50
2022-12-27T07:29:00.987Z,4.70
2022-12-27T07:31:31.910Z,4.50
2022-12-27T07:36:32.867Z,5.00
2022-12-27T07:39:00.918Z,4.30
2022-12-27T07:41:29.365Z,4.40
2022-12-27T07:43:57.483Z,3.70
2022-12-27T07:46:26.550Z,3.70
2022-12-27T07:48:57.096Z,4.50
2022-12-27T07:51:27.699Z,4.60
2022-12-27T07:53:55.809Z,4.30
2022-12-27T07:56:27.049Z,4.70
2022-12-27T07:58:57.698Z,3.80
2022-12-27T08:01:29.307Z,4.50
2022-12-27T08:03:57.474Z,3.60
2022-12-27T08:06:31.936Z,3.10
2022-12-27T08:09:03.449Z,3.10
2022-12-27T08:11:31.710Z,3.10
2022-12-27T08:13:59.791Z,2.60
2022-12-27T08:16:28.179Z,3.70
2022-12-27T08:18:56.394Z,3.00
2022-12-27T08:21:24.444Z,4.70
2022-12-27T08:23:52.611Z,5.00
2022-12-27T08:26:20.615Z,4.70
2022-12-27T08:28:48.767Z,4.80
2022-12-27T08:31:16.898Z,6.90
2022-12-27T08:33:45.213Z,7.20
2022-12-27T08:39:02.176Z,5.90
2022-12-27T08:41:30.278Z,5.50
2022-12-27T08:43:58.316Z,6.70
2022-12-27T08:46:26.564Z,6.70
2022-12-27T08:48:54.672Z,3.90
2022-12-27T08:51:31.641Z,4.60
2022-12-27T08:54:04.099Z,3.10
2022-12-27T08:56:32.186Z,2.20
2022-12-27T08:59:01.363Z,1.80
2022-12-27T09:01:29.582Z,1.70
2022-12-27T09:03:57.821Z,2.00
2022-12-27T09:06:27.945Z,1.60
2022-12-27T09:08:56.280Z,1.80
2022-12-27T09:11:33.434Z,1.70
2022-12-27T09:14:05.767Z,1.40
2022-12-27T09:16:36.703Z,1.70
2022-12-27T09:19:05.336Z,1.60
2022-12-27T09:21:34.322Z,1.30
2022-12-27T09:24:02.820Z,1.50
2022-12-27T09:26:32.321Z,1.50
2022-12-27T09:29:00.673Z,1.60
2022-12-27T09:31:29.206Z,1.20
2022-12-27T09:33:58.712Z,1.70
2022-12-27T09:36:29.568Z,1.40
2022-12-27T09:45:09.045Z,1.90
2022-12-27T09:50:15.542Z,1.70
2022-12-27T09:53:20.910Z,1.70
2022-12-27T09:55:53.262Z,1.70
2022-12-27T09:58:49.662Z,1.70
2022-12-27T10:01:28.498Z,1.70
2022-12-27T10:03:56.852Z,1.60
2022-12-27T10:06:52.047Z,1.40
2022-12-27T10:09:29.071Z,1.70
2022-12-27T10:12:32.073Z,1.50
2022-12-27T10:15:06.103Z,1.60
2022-12-27T10:17:48.092Z,1.70
2022-12-27T10:20:50.957Z,1.60
2022-12-27T10:23:25.568Z,1.70
2022-12-27T10:25:59.882Z,1.60
2022-12-27T10:28:38.986Z,1.50
2022-12-27T10:31:14.869Z,1.80
2022-12-27T10:33:43.852Z,2.10
2022-12-27T10:36:18.399Z,2.00
2022-12-27T10:38:46.591Z,2.00
2022-12-27T10:41:38.910Z,1.90
2022-12-27T10:44:11.972Z,1.80
2022-12-27T10:46:42.609Z,2.10
2022-12-27T10:49:22.741Z,1.90
2022-12-27T10:51:57.403Z,2.00
2022-12-27T10:54:29.809Z,2.60
2022-12-27T10:57:18.626Z,1.90
2022-12-27T10:59:46.714Z,1.50
2022-12-27T11:02:21.096Z,1.80
2022-12-27T11:05:00.536Z,1.60
2022-12-27T11:07:32.443Z,1.40
2022-12-27T11:10:21.529Z,1.60
2022-12-27T11:13:18.643Z,1.70
2022-12-27T11:15:59.034Z,1.80
2022-12-27T11:18:27.506Z,1.70
2022-12-27T11:20:58.417Z,1.70
2022-12-27T11:23:33.783Z,1.70
2022-12-27T11:26:06.949Z,1.40
2022-12-27T11:28:39.772Z,1.60
2022-12-27T11:31:17.018Z,1.60
2022-12-27T11:33:54.391Z,1.80
2022-12-27T11:36:33.002Z,1.60
2022-12-27T11:39:01.471Z,1.70
2022-12-27T11:41:33.647Z,1.30
2022-12-27T11:44:17.097Z,1.40
2022-12-27T11:47:11.883Z,1.40
2022-12-27T11:50:12.071Z,1.40
2022-12-27T11:52:58.874Z,1.60
2022-12-27T11:55:46.367Z,1.80
2022-12-27T11:58:23.443Z,1.10
2022-12-27T12:00:51.563Z,1.60
2022-12-27T12:03:40.748Z,1.30
2022-12-27T12:06:34.473Z,1.10
2022-12-27T12:09:08.473Z,1.60
2022-12-27T12:11:55.077Z,1.40
2022-12-27T12:14:36.152Z,1.30
2022-12-27T12:17:40.872Z,1.50
2022-12-27T12:20:51.147Z,1.30
2022-12-27T12:23:28.175Z,1.30
2022-12-27T12:26:18.888Z,1.30
2022-12-27T12:31:44.816Z,1.50
2022-12-27T12:34:21.810Z,1.90
2022-12-27T12:37:05.028Z,1.50
2022-12-27T12:40:23.853Z,1.20
2022-12-27T12:43:23.821Z,1.30
2022-12-27T12:46:10.640Z,1.50
2022-12-27T12:48:41.873Z,1.60
2022-12-27T12:51:37.262Z,1.70
2022-12-27T12:54:17.318Z,1.60
2022-12-27T12:57:04.851Z,1.90
2022-12-27T12:59:49.431Z,1.60
2022-12-27T13:02:54.849Z,1.80
2022-12-27T13:05:26.191Z,1.60
2022-12-27T13:08:02.743Z,1.40
2022-12-27T13:10:45.656Z,1.40
2022-12-27T13:13:46.733Z,1.50
2022-12-27T13:19:18.083Z,1.60
2022-12-27T13:22:10.867Z,1.60
2022-12-27T13:24:55.220Z,1.80
2022-12-27T13:27:29.271Z,1.60
2022-12-27T13:30:19.247Z,1.70
2022-12-27T13:33:25.439Z,1.70
2022-12-27T13:36:00.267Z,1.70
2022-12-27T13:39:13.116Z,1.60
2022-12-27T13:41:46.889Z,1.50
2022-12-27T13:44:31.769Z,1.50
2022-12-27T13:47:35.290Z,1.50
2022-12-27T13:50:18.345Z,1.70
2022-12-27T13:52:51.339Z,1.70
2022-12-27T13:55:37.506Z,1.80
2022-12-27T13:58:32.360Z,1.70
2022-12-27T14:01:25.292Z,1.70
2022-12-27T14:04:08.403Z,1.70
2022-12-27T14:07:13.765Z,1.60
2022-12-27T14:10:19.086Z,1.90
2022-12-27T14:12:56.235Z,1.90
2022-12-27T14:15:38.904Z,1.80
2022-12-27T14:18:30.277Z,1.90
2022-12-27T14:21:16.746Z,1.70
2022-12-27T14:24:19.597Z,1.80
2022-12-27T14:26:50.659Z,1.70
2022-12-27T14:29:54.896Z,1.80
2022-12-27T14:33:06.835Z,1.70
2022-12-27T14:36:11.809Z,2.00
2022-12-27T14:38:58.627Z,2.00
2022-12-27T14:41:48.427Z,1.90
2022-12-27T14:44:28.357Z,2.00
2022-12-27T14:47:22.650Z,2.20
2022-12-27T14:50:11.971Z,1.80
2022-12-27T14:53:17.357Z,2.00
2022-12-27T14:55:55.339Z,2.10
2022-12-27T14:58:44.866Z,1.90
2022-12-27T15:01:22.084Z,1.80
2022-12-27T15:04:26.797Z,1.80
2022-12-27T15:07:18.787Z,1.90
2022-12-27T15:10:00.513Z,2.90
2022-12-27T15:12:38.761Z,2.90
2022-12-27T15:15:36.103Z,3.40
2022-12-27T15:18:25.663Z,3.60
2022-12-27T15:20:53.691Z,3.50
2022-12-27T15:23:37.207Z,2.90
2022-12-27T15:26:25.495Z,3.10
2022-12-27T15:28:58.577Z,2.70
2022-12-27T15:32:02.745Z,3.10
2022-12-27T15:34:36.586Z,2.40
2022-12-27T15:37:05.456Z,2.30
2022-12-27T15:39:33.462Z,2.70
2022-12-27T15:42:24.325Z,2.50
2022-12-27T15:45:04.688Z,2.80
2022-12-27T15:47:57.227Z,2.30
2022-12-27T15:50:37.381Z,1.90
2022-12-27T15:53:24.447Z,2.10
2022-12-27T15:56:17.220Z,2.30
2022-12-27T15:58:45.779Z,2.10
2022-12-27T16:01:22.197Z,2.60
2022-12-27T16:03:54.680Z,2.30
2022-12-27T16:06:35.213Z,1.70
2022-12-27T16:09:25.157Z,1.90
2022-12-27T16:12:01.079Z,2.00
2022-12-27T16:14:35.078Z,1.80
2022-12-27T16:17:39.805Z,2.20
2022-12-27T16:20:18.314Z,1.90
2022-12-27T16:22:49.423Z,1.80
2022-12-27T16:25:31.916Z,2.10
2022-12-27T16:28:20.424Z,1.90
2022-12-27T16:30:54.442Z,2.10
2022-12-27T16:33:29.001Z,1.40
2022-12-27T16:36:12.546Z,1.60
2022-12-27T16:39:12.637Z,1.70
2022-12-27T16:41:56.113Z,1.90
2022-12-27T16:44:24.213Z,1.70
2022-12-27T16:47:07.876Z,2.00
2022-12-27T16:49:55.709Z,1.70
2022-12-27T16:52:42.309Z,1.70
2022-12-27T16:55:22.593Z,1.70
2022-12-27T16:57:51.415Z,1.70
2022-12-27T17:00:36.826Z,1.70
2022-12-27T17:03:42.690Z,1.70
2022-12-27T17:06:35.360Z,1.80
2022-12-27T17:09:09.868Z,1.80
2022-12-27T17:12:03.233Z,1.90
2022-12-27T17:14:37.861Z,1.90
2022-12-27T17:17:16.894Z,1.80
2022-12-27T17:19:59.600Z,1.90
2022-12-27T17:22:34.569Z,2.00
2022-12-27T17:25:04.913Z,1.80
2022-12-27T17:27:45.409Z,1.90
2022-12-27T17:30:19.701Z,2.00
2022-12-27T17:33:22.572Z,2.10
2022-12-27T17:36:06.981Z,1.60
2022-12-27T17:38:50.074Z,1.80
2022-12-27T17:41:52.874Z,1.80
2022-12-27T17:45:01.156Z,1.70
2022-12-27T17:47:32.887Z,1.70
2022-12-27T17:50:04.893Z,1.90
2022-12-27T17:52:52.218Z,2.00
2022-12-27T17:55:46.183Z,2.10
2022-12-27T17:58:17.058Z,1.80
2022-12-27T18:01:01.586Z,2.10
2022-12-27T18:03:41.955Z,2.10
2022-12-27T18:06:11.674Z,2.10
2022-12-27T18:08:40.737Z,2.10
2022-12-27T18:11:11.218Z,2.00
2022-12-27T18:13:50.328Z,2.00
2022-12-27T18:16:23.190Z,2.10
2022-12-27T18:18:54.446Z,1.90
2022-12-27T18:21:28.758Z,2.00
2022-12-27T18:23:57.944Z,1.80
2022-12-27T18:26:42.022Z,1.70
2022-12-27T18:29:11.765Z,2.00
2022-12-27T18:31:50.414Z,1.90
2022-12-27T18:34:36.657Z,2.00
2022-12-27T18:37:09.681Z,2.10
2022-12-27T18:39:41.771Z,1.80
2022-12-27T18:42:43.046Z,2.10
2022-12-27T18:45:27.267Z,1.90
2022-12-27T18:48:02.502Z,1.80
2022-12-27T18:50:33.748Z,1.90
2022-12-27T18:53:05.465Z,2.10
2022-12-27T18:55:34.868Z,1.90
2022-12-27T18:58:20.789Z,2.10
2022-12-27T19:01:06.687Z,2.00
2022-12-27T19:03:40.568Z,2.00
2022-12-27T19:06:13.022Z,2.20
2022-12-27T19:08:47.763Z,1.90
2022-12-27T19:11:28.426Z,2.20
2022-12-27T19:14:01.216Z,1.90
2022-12-27T19:16:34.555Z,2.30
2022-12-27T19:19:16.791Z,1.80
2022-12-27T19:21:45.095Z,2.20
2022-12-27T19:24:21.490Z,2.10
2022-12-27T19:26:51.143Z,1.90
2022-12-27T19:29:22.556Z,2.10
2022-12-27T19:31:58.718Z,2.20
2022-12-27T19:34:30.675Z,2.30
2022-12-27T19:36:59.327Z,1.70
2022-12-27T19:39:30.649Z,1.80
2022-12-27T19:42:02.816Z,2.50
2022-12-27T19:44:32.078Z,2.40
2022-12-27T19:47:00.946Z,2.20
2022-12-27T19:49:42.646Z,1.80
2022-12-27T19:52:23.977Z,1.70
2022-12-27T19:55:01.689Z,2.20
2022-12-27T19:57:30.722Z,1.90
2022-12-27T19:59:59.510Z,1.90
2022-12-27T20:04:59.210Z,2.10
2022-12-27T20:07:28.016Z,2.30
2022-12-27T20:09:56.791Z,2.20
2022-12-27T20:12:24.972Z,1.90
2022-12-27T20:14:53.798Z,1.90
2022-12-27T20:17:22.962Z,2.20
2022-12-27T20:19:51.786Z,2.30
2022-12-27T20:22:20.265Z,2.10
2022-12-27T20:24:48.361Z,1.80
2022-12-27T20:27:16.436Z,2.00
2022-12-27T20:29:44.730Z,2.10
2022-12-27T20:32:12.861Z,2.60
2022-12-27T20:34:41.007Z,1.90
2022-12-27T20:37:09.163Z,2.20
2022-12-27T20:39:37.272Z,2.40
2022-12-27T20:42:05.452Z,2.20
2022-12-27T20:44:33.582Z,2.30
2022-12-27T20:47:01.959Z,2.20
2022-12-27T20:49:30.952Z,2.20
2022-12-27T20:51:59.601Z,2.10
2022-12-27T20:54:28.177Z,2.20
2022-12-27T20:56:56.693Z,2.40
2022-12-27T20:59:24.869Z,2.00
2022-12-27T21:01:57.266Z,2.20
2022-12-27T21:04:27.069Z,2.80
2022-12-27T21:06:55.306Z,1.90
2022-12-27T21:09:23.820Z,2.50
2022-12-27T21:11:53.251Z,2.60
2022-12-27T21:14:21.383Z,2.80
2022-12-27T21:16:49.600Z,2.90
2022-12-27T21:19:19.042Z,2.80
2022-12-27T21:21:47.190Z,3.10
2022-12-27T21:24:15.393Z,3.10
2022-12-27T21:26:43.425Z,3.40
2022-12-27T21:29:12.417Z,3.10
2022-12-27T21:31:40.535Z,3.40
2022-12-27T21:34:09.213Z,3.40
2022-12-27T21:36:38.505Z,3.60
2022-12-27T21:39:07.638Z,3.60
2022-12-27T21:41:38.323Z,3.10
2022-12-27T21:44:07.389Z,3.00
2022-12-27T21:46:38.549Z,3.10
2022-12-27T21:49:15.501Z,3.00
2022-12-27T21:51:44.401Z,2.70
2022-12-27T21:54:14.055Z,2.80
2022-12-27T21:56:42.448Z,2.60
2022-12-27T21:59:13.326Z,3.20
2022-12-27T22:04:19.492Z,2.70
2022-12-27T22:06:48.103Z,2.90
2022-12-27T22:09:16.448Z,2.60
2022-12-27T22:11:44.685Z,2.40
2022-12-27T22:14:12.759Z,2.30
2022-12-27T22:16:41.012Z,2.40
2022-12-27T22:19:11.659Z,2.60
2022-12-27T22:21:41.927Z,2.20
2022-12-27T22:24:19.459Z,2.30
2022-12-27T22:26:48.828Z,2.50
2022-12-27T22:29:17.887Z,2.50
2022-12-27T22:31:46.773Z,2.70
2022-12-27T22:34:14.963Z,2.30
2022-12-27T22:36:43.062Z,2.40
2022-12-27T22:39:11.270Z,2.80
2022-12-27T22:41:39.403Z,2.50
2022-12-27T22:44:11.129Z,2.60
2022-12-27T22:47:06.797Z,2.40
2022-12-27T22:49:27.713Z,2.70
2022-12-27T22:51:55.849Z,2.50
2022-12-27T22:55:05.401Z,2.40
2022-12-27T22:57:12.116Z,2.50
2022-12-27T22:59:40.214Z,2.80
2022-12-27T23:02:08.332Z,2.60
2022-12-27T23:04:36.590Z,2.60
2022-12-27T23:07:05.308Z,2.70
2022-12-27T23:09:40.845Z,2.40
2022-12-27T23:12:11.857Z,2.50
2022-12-27T23:14:40.743Z,2.20
2022-12-27T23:17:08.803Z,2.90
2022-12-27T23:19:37.024Z,2.40
2022-12-27T23:22:05.407Z,2.30
2022-12-27T23:24:33.745Z,2.20
2022-12-27T23:27:02.233Z,2.30
2022-12-27T23:29:30.284Z,2.50
2022-12-27T23:31:58.533Z,2.40
2022-12-27T23:34:28.974Z,2.60
2022-12-27T23:39:26.661Z,2.40
2022-12-27T23:41:54.820Z,2.60
2022-12-27T23:44:33.866Z,2.20
2022-12-27T23:47:06.555Z,2.30
2022-12-27T23:49:34.953Z,2.80
2022-12-27T23:52:03.816Z,2.20
2022-12-27T23:54:31.971Z,2.50
2022-12-27T23:57:22.203Z,2.50
2022-12-27T23:59:49.468Z,2.40
